createdAt,value
2019-02-12T07:47:41.035Z,20
2019-02-12T07:48:13.020Z,20
2019-02-12T07:48:46.934Z,20
2019-02-12T07:49:18.945Z,20
2019-02-12T07:49:50.941Z,20
2019-02-12T07:50:22.900Z,25
2019-02-12T07:50:54.924Z,25
2019-02-12T07:51:26.949Z,25
2019-02-12T07:51:58.900Z,25
2019-02-12T07:52:30.899Z,25
2019-02-12T07:53:02.913Z,25
2019-02-12T07:53:34.922Z,25
2019-02-12T07:54:06.911Z,25
2019-02-12T07:54:38.893Z,25
2019-02-12T07:55:10.931Z,25
2019-02-12T07:55:42.912Z,25
2019-02-12T07:56:14.895Z,20
2019-02-12T07:56:46.840Z,20
2019-02-12T07:57:18.844Z,20
2019-02-12T07:57:50.881Z,20
2019-02-12T07:58:22.875Z,20
2019-02-12T07:58:54.886Z,20
2019-02-12T07:59:26.885Z,20
2019-02-12T07:59:58.889Z,20
2019-02-12T08:00:30.863Z,20
2019-02-12T08:01:02.882Z,20
2019-02-12T08:01:34.857Z,15
2019-02-12T08:02:06.853Z,15
2019-02-12T08:02:38.839Z,15
2019-02-12T08:03:10.859Z,15
2019-02-12T08:03:42.827Z,15
2019-02-12T08:04:14.835Z,15
2019-02-12T08:04:46.816Z,20
2019-02-12T08:05:18.832Z,20
2019-02-12T08:05:50.843Z,15
2019-02-12T08:06:22.949Z,15
2019-02-12T08:06:54.923Z,15
2019-02-12T08:07:26.903Z,20
2019-02-12T08:07:58.863Z,20
2019-02-12T08:08:30.864Z,20
2019-02-12T08:09:02.880Z,25
2019-02-12T08:09:34.930Z,25
2019-02-12T08:10:06.923Z,25
2019-02-12T08:10:38.893Z,25
2019-02-12T08:11:10.916Z,30
2019-02-12T08:11:42.993Z,30
2019-02-12T08:12:14.979Z,30
2019-02-12T08:12:46.972Z,30
2019-02-12T08:13:18.952Z,30
2019-02-12T08:13:50.940Z,30
2019-02-12T08:14:22.930Z,30
2019-02-12T08:14:54.913Z,30
2019-02-12T08:15:26.908Z,30
2019-02-12T08:15:58.903Z,30
2019-02-12T08:16:30.901Z,30
2019-02-12T08:17:02.877Z,30
2019-02-12T08:17:34.846Z,30
2019-02-12T08:18:06.811Z,30
2019-02-12T08:18:38.776Z,35
2019-02-12T08:19:10.772Z,35
2019-02-12T08:19:42.788Z,35
2019-02-12T08:20:14.761Z,35
2019-02-12T08:20:46.745Z,40
2019-02-12T08:21:18.728Z,40
2019-02-12T08:21:50.752Z,40
2019-02-12T08:22:22.752Z,40
2019-02-12T08:22:54.737Z,40
2019-02-12T08:23:26.752Z,45
2019-02-12T08:23:58.757Z,45
2019-02-12T08:24:30.755Z,45
2019-02-12T08:25:02.893Z,45
2019-02-12T08:25:34.867Z,50
2019-02-12T08:26:06.861Z,50
2019-02-12T08:26:38.838Z,50
2019-02-12T08:27:10.816Z,55
2019-02-12T08:27:42.827Z,55
2019-02-12T08:28:14.846Z,55
2019-02-12T08:28:47.000Z,55
2019-02-12T08:29:18.979Z,55
2019-02-12T08:29:50.980Z,55
2019-02-12T08:30:22.981Z,55
2019-02-12T08:30:54.980Z,55
2019-02-12T08:31:26.956Z,55
2019-02-12T08:31:59.023Z,55
2019-02-12T08:32:31.466Z,55
2019-02-12T08:33:03.461Z,60
2019-02-12T08:33:35.469Z,55
2019-02-12T08:34:07.457Z,55
2019-02-12T08:34:39.470Z,55
2019-02-12T08:35:11.425Z,55
2019-02-12T08:35:43.424Z,55
2019-02-12T08:36:15.413Z,55
2019-02-12T08:36:47.415Z,55
2019-02-12T08:37:19.404Z,55
2019-02-12T08:37:51.386Z,55
2019-02-12T08:38:23.372Z,55
2019-02-12T08:38:55.389Z,55
2019-02-12T08:39:27.432Z,55
2019-02-12T08:39:59.489Z,55
2019-02-12T08:40:31.510Z,50
2019-02-12T08:41:03.515Z,50
2019-02-12T08:41:35.509Z,50
2019-02-12T08:42:07.540Z,50
2019-02-12T08:42:39.525Z,50
2019-02-12T08:43:11.516Z,50
2019-02-12T08:43:44.395Z,50
2019-02-12T08:44:16.390Z,50
2019-02-12T08:44:48.398Z,50
2019-02-12T08:45:20.392Z,55
2019-02-12T08:45:52.386Z,55
2019-02-12T08:46:24.390Z,55
2019-02-12T08:46:56.378Z,55
2019-02-12T08:47:28.468Z,60
2019-02-12T08:48:00.456Z,60
2019-02-12T08:48:32.475Z,60
2019-02-12T08:49:04.464Z,60
2019-02-12T08:49:36.561Z,65
2019-02-12T08:50:08.561Z,65
2019-02-12T08:50:40.547Z,65
2019-02-12T08:51:12.530Z,65
2019-02-12T08:51:44.518Z,65
2019-02-12T08:52:16.512Z,65
2019-02-12T08:52:48.509Z,65
2019-02-12T08:53:20.492Z,65
2019-02-12T08:53:52.554Z,60
2019-02-12T08:54:24.548Z,60
2019-02-12T08:54:56.535Z,60
2019-02-12T08:55:28.502Z,65
2019-02-12T08:56:00.498Z,65
2019-02-12T08:56:32.496Z,65
2019-02-12T08:57:04.503Z,65
2019-02-12T08:57:36.540Z,65
2019-02-12T08:58:08.531Z,65
2019-02-12T08:58:40.557Z,65
2019-02-12T08:59:12.546Z,65
2019-02-12T08:59:44.616Z,65
2019-02-12T09:00:16.602Z,65
2019-02-12T09:00:49.208Z,65
2019-02-12T09:01:21.256Z,65
2019-02-12T09:01:53.367Z,65
2019-02-12T09:02:25.377Z,65
2019-02-12T09:02:57.361Z,65
2019-02-12T09:03:29.355Z,65
2019-02-12T09:04:01.398Z,65
2019-02-12T09:04:33.422Z,65
2019-02-12T09:05:05.509Z,65
2019-02-12T09:05:37.532Z,65
2019-02-12T09:06:09.549Z,65
2019-02-12T09:06:41.568Z,65
2019-02-12T09:07:13.559Z,65
2019-02-12T09:07:45.611Z,65
2019-02-12T09:08:17.634Z,65
2019-02-12T09:08:49.648Z,65
2019-02-12T09:09:21.655Z,65
2019-02-12T09:09:53.633Z,65
2019-02-12T09:10:25.623Z,65
2019-02-12T09:10:57.615Z,65
2019-02-12T09:11:29.620Z,65
2019-02-12T09:12:01.907Z,65
2019-02-12T09:12:34.214Z,65
2019-02-12T09:13:06.246Z,65
2019-02-12T09:13:38.281Z,70
2019-02-12T09:14:10.336Z,70
2019-02-12T09:14:42.494Z,70
2019-02-12T09:15:14.937Z,70
2019-02-12T09:15:46.932Z,70
2019-02-12T09:16:18.924Z,70
2019-02-12T09:16:50.917Z,70
2019-02-12T09:17:22.952Z,70
2019-02-12T09:17:54.948Z,70
2019-02-12T09:18:27.048Z,70
2019-02-12T09:18:59.037Z,70
2019-02-12T09:19:31.059Z,70
2019-02-12T09:20:03.092Z,70
2019-02-12T09:20:35.238Z,65
2019-02-12T09:21:07.285Z,65
2019-02-12T09:21:39.345Z,70
2019-02-12T09:22:11.386Z,70
2019-02-12T09:22:43.395Z,70
2019-02-12T09:23:15.495Z,75
2019-02-12T09:23:47.699Z,70
2019-02-12T09:24:19.997Z,70
2019-02-12T09:24:52.044Z,70
2019-02-12T09:25:24.215Z,65
2019-02-12T09:25:56.196Z,65
2019-02-12T09:26:28.213Z,65
2019-02-12T09:27:00.210Z,65
2019-02-12T09:27:32.226Z,65
2019-02-12T09:28:04.222Z,65
2019-02-12T09:28:36.301Z,70
2019-02-12T09:29:08.283Z,70
2019-02-12T09:29:40.255Z,70
2019-02-12T09:30:12.288Z,75
2019-02-12T09:30:44.313Z,70
2019-02-12T09:31:16.343Z,70
2019-02-12T09:31:48.315Z,70
2019-02-12T09:32:20.513Z,75
2019-02-12T09:32:52.623Z,75
2019-02-12T09:33:24.677Z,75
2019-02-12T09:33:56.690Z,80
2019-02-12T09:34:28.685Z,80
2019-02-12T09:35:00.718Z,80
2019-02-12T09:35:32.916Z,85
2019-02-12T09:36:05.032Z,85
2019-02-12T09:36:37.039Z,85
2019-02-12T09:37:09.048Z,85
2019-02-12T09:37:41.036Z,85
2019-02-12T09:38:13.021Z,85
2019-02-12T09:38:45.006Z,85
2019-02-12T09:39:16.963Z,90
2019-02-12T09:39:48.939Z,90
2019-02-12T09:40:21.171Z,90
2019-02-12T09:40:53.162Z,90
2019-02-12T09:41:25.193Z,90
2019-02-12T09:41:57.192Z,95
2019-02-12T09:42:29.200Z,95
2019-02-12T09:43:01.205Z,105
2019-02-12T09:43:33.182Z,110
2019-02-12T09:44:05.161Z,110
2019-02-12T09:44:37.163Z,110
2019-02-12T09:45:09.132Z,115
2019-02-12T09:45:41.139Z,115
2019-02-12T09:46:13.136Z,115
2019-02-12T09:46:45.113Z,115
2019-02-12T09:47:17.084Z,115
2019-02-12T09:47:49.067Z,115
2019-02-12T09:48:21.039Z,115
2019-02-12T09:48:55.761Z,115
2019-02-12T09:49:27.768Z,120
2019-02-12T09:50:00.079Z,120
2019-02-12T09:50:32.195Z,125
2019-02-12T09:51:04.779Z,125
2019-02-12T09:51:36.762Z,125
2019-02-12T09:52:08.760Z,130
2019-02-12T09:52:40.819Z,130
2019-02-12T09:53:12.806Z,135
2019-02-12T09:53:44.903Z,135
2019-02-12T09:54:16.885Z,130
2019-02-12T09:54:48.987Z,130
2019-02-12T09:55:20.973Z,130
2019-02-12T09:55:52.973Z,125
2019-02-12T09:56:25.007Z,125
2019-02-12T09:56:57.068Z,125
2019-02-12T09:57:29.078Z,120
2019-02-12T09:58:01.127Z,120
2019-02-12T09:58:33.153Z,120
2019-02-12T09:59:05.147Z,120
2019-02-12T09:59:37.159Z,115
2019-02-12T10:00:09.952Z,110
2019-02-12T10:00:41.994Z,110
2019-02-12T10:01:14.051Z,105
2019-02-12T10:01:46.041Z,105
2019-02-12T10:02:18.036Z,100
2019-02-12T10:02:50.078Z,100
2019-02-12T10:03:22.102Z,95
2019-02-12T10:03:54.097Z,90
2019-02-12T10:04:26.158Z,90
2019-02-12T10:04:58.213Z,90
2019-02-12T10:05:30.216Z,90
2019-02-12T10:06:02.237Z,90
2019-02-12T10:06:34.246Z,90
2019-02-12T10:07:06.277Z,85
2019-02-12T10:07:39.123Z,85
2019-02-12T10:08:11.134Z,85
2019-02-12T10:08:43.132Z,85
2019-02-12T10:09:15.124Z,80
2019-02-12T10:09:47.137Z,80
2019-02-12T10:10:19.130Z,80
2019-02-12T10:10:51.151Z,80
2019-02-12T10:11:23.157Z,75
2019-02-12T10:11:55.171Z,75
2019-02-12T10:12:27.192Z,75
2019-02-12T10:12:59.208Z,70
2019-02-12T10:13:31.186Z,70
2019-02-12T10:14:03.192Z,70
2019-02-12T10:14:35.163Z,65
2019-02-12T10:15:07.210Z,65
2019-02-12T10:15:39.206Z,65
2019-02-12T10:16:11.179Z,65
2019-02-12T10:16:43.177Z,65
2019-02-12T10:17:15.205Z,65
2019-02-12T10:17:47.230Z,65
2019-02-12T10:18:19.321Z,65
2019-02-12T10:18:51.326Z,70
2019-02-12T10:19:23.348Z,65
2019-02-12T10:19:55.362Z,65
2019-02-12T10:20:27.387Z,65
2019-02-12T10:20:59.467Z,65
2019-02-12T10:21:31.464Z,70
2019-02-12T10:22:03.465Z,70
2019-02-12T10:22:35.495Z,75
2019-02-12T10:23:08.214Z,75
2019-02-12T10:23:40.247Z,80
2019-02-12T10:24:21.425Z,80
2019-02-12T10:24:53.521Z,85
2019-02-12T10:25:25.510Z,85
2019-02-12T10:25:57.490Z,85
2019-02-12T10:26:29.508Z,85
2019-02-12T10:27:01.516Z,90
2019-02-12T10:27:33.504Z,90
2019-02-12T10:28:05.649Z,90
2019-02-12T10:28:37.651Z,95
2019-02-12T10:29:09.655Z,95
2019-02-12T10:29:41.629Z,100
2019-02-12T10:30:13.628Z,100
2019-02-12T10:30:45.625Z,100
2019-02-12T10:31:17.604Z,100
2019-02-12T10:31:49.593Z,100
2019-02-12T10:32:21.695Z,100
2019-02-12T10:32:53.777Z,100
2019-02-12T10:33:25.775Z,105
2019-02-12T10:33:57.932Z,105
2019-02-12T10:34:29.917Z,105
2019-02-12T10:35:01.913Z,105
2019-02-12T10:35:33.939Z,105
2019-02-12T10:36:06.049Z,110
2019-02-12T10:36:38.041Z,110
2019-02-12T10:37:10.022Z,110
2019-02-12T10:37:42.020Z,110
2019-02-12T10:38:46.050Z,115
2019-02-12T10:39:18.039Z,115
2019-02-12T10:39:50.027Z,110
2019-02-12T10:40:22.060Z,115
2019-02-12T10:40:54.068Z,115
2019-02-12T10:41:26.085Z,115
2019-02-12T10:41:58.077Z,120
2019-02-12T10:42:30.080Z,125
2019-02-12T10:43:02.094Z,120
2019-02-12T10:43:34.137Z,115
2019-02-12T10:44:06.167Z,120
2019-02-12T10:44:38.182Z,120
2019-02-12T10:45:10.169Z,125
2019-02-12T10:45:42.147Z,120
2019-02-12T10:46:14.102Z,120
2019-02-12T10:46:46.097Z,115
2019-02-12T10:47:18.119Z,110
2019-02-12T10:47:50.121Z,115
2019-02-12T10:48:22.118Z,110
2019-02-12T10:48:54.470Z,110
2019-02-12T10:49:26.457Z,105
2019-02-12T10:50:00.163Z,100
2019-02-12T10:50:32.162Z,100
2019-02-12T10:51:04.162Z,110
2019-02-12T10:51:36.140Z,105
2019-02-12T10:52:08.162Z,100
2019-02-12T10:52:40.164Z,105
2019-02-12T10:53:12.252Z,100
2019-02-12T10:53:44.303Z,100
2019-02-12T10:54:16.296Z,105
2019-02-12T10:54:48.302Z,100
2019-02-12T10:55:20.325Z,115
2019-02-12T10:55:52.315Z,115
2019-02-12T10:56:24.390Z,115
2019-02-12T10:56:56.376Z,110
2019-02-12T10:57:28.361Z,110
2019-02-12T10:58:00.419Z,110
2019-02-12T10:58:32.425Z,110
2019-02-12T10:59:04.478Z,115
2019-02-12T10:59:36.478Z,120
2019-02-12T11:00:08.505Z,110
2019-02-12T11:00:40.477Z,110
2019-02-12T11:01:12.461Z,105
2019-02-12T11:01:44.457Z,105
2019-02-12T11:02:16.451Z,100
2019-02-12T11:02:48.472Z,95
2019-02-12T11:03:20.453Z,90
2019-02-12T11:03:52.495Z,85
2019-02-12T11:04:24.548Z,85
2019-02-12T11:04:56.528Z,80
2019-02-12T11:05:28.609Z,75
2019-02-12T11:06:00.735Z,70
2019-02-12T11:06:32.870Z,65
2019-02-12T11:07:04.996Z,65
2019-02-12T11:07:37.102Z,60
2019-02-12T11:08:09.151Z,60
2019-02-12T11:08:41.157Z,65
2019-02-12T11:09:13.187Z,65
2019-02-12T11:09:45.181Z,70
2019-02-12T11:10:17.226Z,70
2019-02-12T11:10:49.274Z,75
2019-02-12T11:11:21.312Z,80
2019-02-12T11:11:53.311Z,80
2019-02-12T11:12:25.325Z,80
2019-02-12T11:12:57.296Z,75
2019-02-12T11:13:29.270Z,70
2019-02-12T11:14:01.270Z,65
2019-02-12T11:14:33.255Z,60
2019-02-12T11:15:05.251Z,55
2019-02-12T11:15:37.245Z,50
2019-02-12T11:16:09.246Z,50
2019-02-12T11:16:41.228Z,45
2019-02-12T11:17:13.214Z,45
2019-02-12T11:17:45.217Z,45
2019-02-12T11:18:17.201Z,50
2019-02-12T11:18:49.204Z,50
2019-02-12T11:19:21.187Z,50
2019-02-12T11:19:53.160Z,55
2019-02-12T11:20:25.156Z,55
2019-02-12T11:20:57.148Z,60
2019-02-12T11:21:29.136Z,65
2019-02-12T11:22:01.120Z,65
2019-02-12T11:22:33.143Z,60
2019-02-12T11:23:05.121Z,60
2019-02-12T11:23:37.126Z,55
2019-02-12T11:24:09.121Z,50
2019-02-12T11:24:41.122Z,50
2019-02-12T11:25:13.097Z,50
2019-02-12T11:25:45.071Z,55
2019-02-12T11:26:17.047Z,55
2019-02-12T11:26:49.038Z,60
2019-02-12T11:27:21.013Z,65
2019-02-12T11:27:53.018Z,70
2019-02-12T11:28:25.021Z,70
2019-02-12T11:28:57.021Z,80
2019-02-12T11:29:30.456Z,85
2019-02-12T11:30:02.523Z,95
2019-02-12T11:30:34.517Z,105
2019-02-12T11:31:06.509Z,110
2019-02-12T11:31:38.483Z,110
2019-02-12T11:32:10.464Z,110
2019-02-12T11:32:42.981Z,110
2019-02-12T11:33:14.997Z,110
2019-02-12T11:33:46.982Z,105
2019-02-12T11:34:19.037Z,100
2019-02-12T11:34:51.031Z,95
2019-02-12T11:35:23.027Z,90
2019-02-12T11:35:55.032Z,80
2019-02-12T11:36:27.044Z,70
2019-02-12T11:36:59.014Z,65
2019-02-12T11:37:30.993Z,60
2019-02-12T11:38:02.950Z,55
2019-02-12T11:38:34.926Z,50
2019-02-12T11:39:06.903Z,45
2019-02-12T11:39:38.879Z,45
2019-02-12T11:40:10.843Z,40
2019-02-12T11:40:42.858Z,40
2019-02-12T11:41:14.827Z,40
2019-02-12T11:41:46.835Z,35
2019-02-12T11:42:18.819Z,35
2019-02-12T11:42:50.804Z,35
2019-02-12T11:43:22.780Z,40
2019-02-12T11:43:54.778Z,40
2019-02-12T11:44:26.781Z,40
2019-02-12T11:44:58.761Z,45
2019-02-12T11:45:30.737Z,45
2019-02-12T11:46:04.377Z,50
2019-02-12T11:46:36.353Z,50
2019-02-12T11:47:08.363Z,55
2019-02-12T11:47:40.361Z,60
2019-02-12T11:48:12.348Z,60
2019-02-12T11:48:44.335Z,65
2019-02-12T11:49:16.305Z,65
2019-02-12T11:49:48.286Z,70
2019-02-12T11:50:20.292Z,75
2019-02-12T11:50:52.270Z,75
2019-02-12T11:51:24.283Z,75
2019-02-12T11:51:56.263Z,75
2019-02-12T11:52:28.256Z,75
2019-02-12T11:53:00.226Z,80
2019-02-12T11:53:32.303Z,90
2019-02-12T11:54:04.292Z,90
2019-02-12T11:54:44.500Z,85
2019-02-12T11:55:16.493Z,80
2019-02-12T11:55:48.523Z,80
2019-02-12T11:56:20.499Z,80
2019-02-12T11:56:52.480Z,80
2019-02-12T11:57:24.461Z,80
2019-02-12T11:57:56.440Z,80
2019-02-12T11:58:28.439Z,85
2019-02-12T11:59:00.437Z,85
2019-02-12T11:59:32.465Z,85
2019-02-12T12:00:04.445Z,90
2019-02-12T12:00:36.420Z,105
2019-02-12T12:01:08.397Z,115
2019-02-12T12:01:40.418Z,110
2019-02-12T12:02:12.402Z,105
2019-02-12T12:02:44.406Z,100
2019-02-12T12:03:16.377Z,95
2019-02-12T12:03:48.356Z,90
2019-02-12T12:04:20.347Z,90
2019-02-12T12:04:52.356Z,90
2019-02-12T12:05:24.379Z,90
2019-02-12T12:05:56.378Z,85
2019-02-12T12:06:28.359Z,80
2019-02-12T12:07:00.336Z,80
2019-02-12T12:07:32.321Z,80
2019-02-12T12:08:04.303Z,85
2019-02-12T12:08:36.290Z,85
2019-02-12T12:09:08.251Z,90
2019-02-12T12:09:40.208Z,95
2019-02-12T12:10:12.214Z,95
2019-02-12T12:10:44.275Z,95
2019-02-12T12:11:16.815Z,95
2019-02-12T12:11:48.820Z,95
2019-02-12T12:12:20.803Z,95
2019-02-12T12:12:52.768Z,95
2019-02-12T12:13:24.746Z,90
2019-02-12T12:13:56.715Z,90
2019-02-12T12:14:28.712Z,90
2019-02-12T12:15:00.686Z,85
2019-02-12T12:15:32.691Z,85
2019-02-12T12:16:04.659Z,85
2019-02-12T12:16:36.655Z,90
2019-02-12T12:17:08.691Z,90
2019-02-12T12:17:40.668Z,95
2019-02-12T12:18:12.657Z,95
2019-02-12T12:18:44.639Z,95
2019-02-12T12:19:16.652Z,95
2019-02-12T12:19:48.637Z,90
2019-02-12T12:20:20.609Z,90
2019-02-12T12:20:52.630Z,85
2019-02-12T12:21:24.635Z,85
2019-02-12T12:21:56.603Z,80
2019-02-12T12:22:28.572Z,80
2019-02-12T12:23:00.552Z,80
2019-02-12T12:23:32.516Z,80
2019-02-12T12:24:04.504Z,80
2019-02-12T12:24:36.496Z,80
2019-02-12T12:25:08.562Z,80
2019-02-12T12:25:40.531Z,80
2019-02-12T12:26:12.515Z,80
2019-02-12T12:26:44.508Z,80
2019-02-12T12:27:16.492Z,80
2019-02-12T12:27:48.508Z,85
2019-02-12T12:28:20.491Z,85
2019-02-12T12:28:52.477Z,90
2019-02-12T12:29:24.468Z,90
2019-02-12T12:29:56.450Z,95
2019-02-12T12:30:28.421Z,100
2019-02-12T12:31:00.417Z,100
2019-02-12T12:31:32.413Z,100
2019-02-12T12:32:04.396Z,100
2019-02-12T12:32:36.377Z,100
2019-02-12T12:33:08.360Z,100
2019-02-12T12:33:40.313Z,100
2019-02-12T12:34:12.298Z,105
2019-02-12T12:34:44.304Z,105
2019-02-12T12:35:16.305Z,100
2019-02-12T12:35:48.311Z,100
2019-02-12T12:36:20.434Z,95
2019-02-12T12:36:52.412Z,95
2019-02-12T12:37:24.378Z,90
2019-02-12T12:37:56.382Z,90
2019-02-12T12:38:28.367Z,90
2019-02-12T12:39:00.364Z,90
2019-02-12T12:39:32.386Z,90
2019-02-12T12:40:04.356Z,90
2019-02-12T12:40:36.343Z,90
2019-02-12T12:41:08.322Z,90
2019-02-12T12:41:40.303Z,90
2019-02-12T12:42:12.288Z,90
2019-02-12T12:42:45.250Z,95
2019-02-12T12:43:17.765Z,100
2019-02-12T12:43:49.795Z,100
2019-02-12T12:44:21.832Z,100
2019-02-12T12:44:53.970Z,100
2019-02-12T12:45:25.947Z,105
2019-02-12T12:45:57.929Z,105
2019-02-12T12:46:29.996Z,105
2019-02-12T12:47:01.970Z,105
2019-02-12T12:47:33.987Z,105
2019-02-12T12:48:06.001Z,105
2019-02-12T12:48:37.997Z,105
2019-02-12T12:49:09.997Z,105
2019-02-12T12:49:42.039Z,105
2019-02-12T12:50:14.029Z,105
2019-02-12T12:50:46.095Z,105
2019-02-12T12:51:18.158Z,100
2019-02-12T12:51:50.130Z,100
2019-02-12T12:52:22.232Z,100
2019-02-12T12:52:54.302Z,105
2019-02-12T12:53:26.290Z,105
2019-02-12T12:53:58.301Z,110
2019-02-12T12:54:30.329Z,110
2019-02-12T12:55:02.350Z,115
2019-02-12T12:55:34.365Z,120
2019-02-12T12:56:06.346Z,125
2019-02-12T12:56:38.345Z,130
2019-02-12T12:57:10.310Z,140
2019-02-12T12:57:43.816Z,150
2019-02-12T12:58:15.838Z,160
2019-02-12T12:58:47.829Z,170
2019-02-12T12:59:19.841Z,180
2019-02-12T12:59:51.847Z,185
2019-02-12T13:00:23.859Z,195
2019-02-12T13:00:57.536Z,205
2019-02-12T13:01:29.509Z,205
2019-02-12T13:02:01.546Z,215
2019-02-12T13:02:33.524Z,225
2019-02-12T13:03:05.514Z,245
2019-02-12T13:03:37.524Z,275
2019-02-12T13:04:09.502Z,300
2019-02-12T13:04:41.615Z,345
2019-02-12T13:05:13.618Z,345
2019-02-12T13:05:45.599Z,365
2019-02-12T13:06:17.602Z,365
2019-02-12T13:06:49.582Z,355
2019-02-12T13:07:21.557Z,320
2019-02-12T13:07:53.517Z,295
2019-02-12T13:08:25.503Z,290
2019-02-12T13:08:57.531Z,280
2019-02-12T13:09:29.514Z,275
2019-02-12T13:10:01.518Z,290
2019-02-12T13:10:33.506Z,320
2019-02-12T13:11:05.489Z,360
2019-02-12T13:11:37.482Z,375
2019-02-12T13:12:09.462Z,355
2019-02-12T13:12:41.442Z,410
2019-02-12T13:13:13.433Z,680
2019-02-12T13:13:45.400Z,580
2019-02-12T13:14:17.384Z,575
2019-02-12T13:14:49.372Z,750
2019-02-12T13:15:21.338Z,700
2019-02-12T13:15:53.325Z,525
2019-02-12T13:16:25.331Z,490
2019-02-12T13:16:59.766Z,580
2019-02-12T13:17:31.750Z,1165
2019-02-12T13:18:04.169Z,540
2019-02-12T13:18:36.448Z,670
2019-02-12T13:19:10.142Z,495
2019-02-12T13:19:42.352Z,455
2019-02-12T13:20:14.411Z,525
2019-02-12T13:20:47.214Z,620
2019-02-12T13:21:19.202Z,1810
2019-02-12T13:21:51.177Z,1585
2019-02-12T13:22:23.187Z,1385
2019-02-12T13:22:55.198Z,1585
2019-02-12T13:23:27.249Z,1605
2019-02-12T13:24:00.252Z,1655
2019-02-12T13:24:32.584Z,1400
2019-02-12T13:25:10.279Z,1510
2019-02-12T13:25:42.285Z,1625
2019-02-12T13:26:14.340Z,1370
2019-02-12T13:26:46.317Z,1350
2019-02-12T13:27:18.358Z,1285
2019-02-12T13:27:50.344Z,1130
2019-02-12T13:28:22.354Z,1025
2019-02-12T13:28:54.472Z,1355
2019-02-12T13:29:26.473Z,1500
2019-02-12T13:30:00.075Z,1290
2019-02-12T13:30:32.244Z,915
2019-02-12T13:31:04.403Z,625
2019-02-12T13:31:36.558Z,430
2019-02-12T13:32:08.896Z,290
2019-02-12T13:32:40.990Z,230
2019-02-12T13:33:13.140Z,210
2019-02-12T13:33:45.226Z,195
2019-02-12T13:34:17.364Z,185
2019-02-12T13:34:49.435Z,175
2019-02-12T13:35:21.419Z,165
2019-02-12T13:35:53.503Z,150
2019-02-12T13:36:25.645Z,140
2019-02-12T13:36:57.686Z,130
2019-02-12T13:37:29.672Z,120
2019-02-12T13:38:01.644Z,110
2019-02-12T13:38:33.621Z,100
2019-02-12T13:39:05.631Z,95
2019-02-12T13:39:37.638Z,90
2019-02-12T13:40:09.621Z,85
2019-02-12T13:40:42.025Z,85
2019-02-12T13:41:14.002Z,80
2019-02-12T13:41:47.543Z,80
2019-02-12T13:42:19.517Z,75
2019-02-12T13:42:51.494Z,75
2019-02-12T13:43:23.462Z,70
2019-02-12T13:43:55.438Z,65
2019-02-12T13:44:27.474Z,60
2019-02-12T13:44:59.751Z,55
2019-02-12T13:45:32.307Z,50
2019-02-12T13:46:05.154Z,45
2019-02-12T13:46:37.159Z,40
2019-02-12T13:47:09.273Z,40
2019-02-12T13:47:41.344Z,35
2019-02-12T13:48:13.570Z,35
2019-02-12T13:48:45.598Z,35
2019-02-12T13:49:17.634Z,35
2019-02-12T13:49:49.738Z,35
2019-02-12T13:50:21.788Z,35
2019-02-12T13:50:53.840Z,30
2019-02-12T13:51:25.941Z,25
2019-02-12T13:51:57.997Z,25
2019-02-12T13:52:30.041Z,20
2019-02-12T13:53:02.212Z,15
2019-02-12T13:53:34.258Z,15
2019-02-12T13:54:06.531Z,15
2019-02-12T13:54:38.534Z,10
2019-02-12T13:55:19.082Z,10
2019-02-12T13:55:51.201Z,10
2019-02-12T13:56:23.228Z,10
2019-02-12T13:56:55.452Z,10
2019-02-12T13:57:27.450Z,15
2019-02-12T13:57:59.486Z,20
2019-02-12T13:58:31.502Z,25
2019-02-12T13:59:03.483Z,35
2019-02-12T13:59:35.472Z,40
2019-02-12T14:00:07.453Z,45
2019-02-12T14:00:39.468Z,50
2019-02-12T14:01:11.460Z,55
2019-02-12T14:01:43.577Z,65
2019-02-12T14:02:15.586Z,65
2019-02-12T14:02:47.599Z,60
2019-02-12T14:03:24.802Z,60
2019-02-12T14:03:56.865Z,60
2019-02-12T14:04:28.839Z,60
2019-02-12T14:05:00.832Z,60
2019-02-12T14:05:33.106Z,70
2019-02-12T14:06:05.293Z,90
2019-02-12T14:06:37.526Z,100
2019-02-12T14:07:09.538Z,100
2019-02-12T14:07:41.536Z,105
2019-02-12T14:08:13.547Z,110
2019-02-12T14:08:45.510Z,125
2019-02-12T14:09:17.571Z,130
2019-02-12T14:09:49.552Z,145
2019-02-12T14:10:21.531Z,165
2019-02-12T14:10:53.516Z,200
2019-02-12T14:11:25.510Z,200
2019-02-12T14:11:57.502Z,255
2019-02-12T14:12:29.575Z,545
2019-02-12T14:13:01.544Z,570
2019-02-12T14:13:33.528Z,545
2019-02-12T14:14:05.516Z,565
2019-02-12T14:14:37.522Z,750
2019-02-12T14:15:09.504Z,725
2019-02-12T14:15:41.476Z,765
2019-02-12T14:16:14.172Z,640
2019-02-12T14:16:46.149Z,630
2019-02-12T14:17:18.124Z,940
2019-02-12T14:17:50.131Z,620
2019-02-12T14:18:22.111Z,285
2019-02-12T14:18:54.134Z,265
2019-02-12T14:19:26.125Z,255
2019-02-12T14:19:58.166Z,230
2019-02-12T14:20:30.176Z,375
2019-02-12T14:21:02.205Z,185
2019-02-12T14:21:34.253Z,160
2019-02-12T14:22:06.275Z,145
2019-02-12T14:22:38.250Z,130
2019-02-12T14:23:10.243Z,115
2019-02-12T14:23:42.241Z,105
2019-02-12T14:24:14.236Z,105
2019-02-12T14:24:46.230Z,100
2019-02-12T14:25:26.890Z,95
2019-02-12T14:25:58.883Z,95
2019-02-12T14:26:30.905Z,90
2019-02-12T14:27:02.916Z,80
2019-02-12T14:27:34.910Z,65
2019-02-12T14:28:06.938Z,55
2019-02-12T14:28:38.939Z,55
2019-02-12T14:29:10.991Z,60
2019-02-12T14:29:43.022Z,70
2019-02-12T14:30:15.009Z,85
2019-02-12T14:30:47.009Z,90
2019-02-12T14:31:19.012Z,90
2019-02-12T14:31:54.814Z,90
2019-02-12T14:32:26.808Z,90
2019-02-12T14:32:58.813Z,90
2019-02-12T14:33:30.840Z,95
2019-02-12T14:34:02.904Z,100
2019-02-12T14:34:34.892Z,115
2019-02-12T14:35:06.923Z,150
2019-02-12T14:35:38.972Z,240
2019-02-12T14:36:11.008Z,180
2019-02-12T14:36:43.049Z,165
2019-02-12T14:37:15.057Z,155
2019-02-12T14:37:47.030Z,160
2019-02-12T14:38:19.024Z,170
2019-02-12T14:38:51.021Z,285
2019-02-12T14:39:23.012Z,135
2019-02-12T14:39:55.000Z,125
2019-02-12T14:40:27.000Z,115
2019-02-12T14:40:59.002Z,110
2019-02-12T14:41:30.975Z,100
2019-02-12T14:42:02.966Z,145
2019-02-12T14:42:34.930Z,140
2019-02-12T14:43:15.720Z,105
2019-02-12T14:43:47.726Z,100
2019-02-12T14:44:19.767Z,120
2019-02-12T14:44:51.756Z,195
2019-02-12T14:45:23.735Z,480
2019-02-12T14:45:55.739Z,565
2019-02-12T14:46:27.720Z,570
2019-02-12T14:46:59.687Z,425
2019-02-12T14:47:31.648Z,325
2019-02-12T14:48:03.714Z,485
2019-02-12T14:48:35.712Z,470
2019-02-12T14:49:07.720Z,355
2019-02-12T14:49:39.714Z,165
2019-02-12T14:50:11.716Z,140
2019-02-12T14:50:43.730Z,125
2019-02-12T14:51:15.703Z,115
2019-02-12T14:51:47.697Z,110
2019-02-12T14:52:19.701Z,100
2019-02-12T14:52:51.691Z,95
2019-02-12T14:53:23.689Z,85
2019-02-12T14:53:55.671Z,70
2019-02-12T14:54:27.647Z,60
2019-02-12T14:54:59.665Z,55
2019-02-12T14:55:35.634Z,55
2019-02-12T14:56:12.981Z,65
2019-02-12T14:56:44.981Z,65
2019-02-12T14:57:16.971Z,65
2019-02-12T14:57:48.967Z,65
2019-02-12T14:58:20.934Z,65
2019-02-12T14:58:52.889Z,70
2019-02-12T14:59:24.888Z,70
2019-02-12T14:59:56.883Z,70
2019-02-12T15:00:28.873Z,70
2019-02-12T15:01:00.857Z,75
2019-02-12T15:01:32.828Z,75
2019-02-12T15:02:04.841Z,80
2019-02-12T15:02:36.825Z,80
2019-02-12T15:03:08.824Z,85
2019-02-12T15:03:40.871Z,80
2019-02-12T15:04:12.865Z,80
2019-02-12T15:04:44.859Z,80
2019-02-12T15:05:16.859Z,80
2019-02-12T15:05:48.852Z,85
2019-02-12T15:06:20.820Z,85
2019-02-12T15:06:52.814Z,85
2019-02-12T15:07:24.785Z,90
2019-02-12T15:07:56.764Z,90
2019-02-12T15:08:28.738Z,85
2019-02-12T15:09:00.711Z,80
2019-02-12T15:09:32.685Z,75
2019-02-12T15:10:04.676Z,75
2019-02-12T15:10:36.658Z,70
2019-02-12T15:11:08.662Z,65
2019-02-12T15:11:40.642Z,55
2019-02-12T15:12:12.660Z,50
2019-02-12T15:12:44.690Z,45
2019-02-12T15:13:16.660Z,40
2019-02-12T15:13:48.667Z,35
2019-02-12T15:14:20.636Z,35
2019-02-12T15:14:52.650Z,35
2019-02-12T15:15:24.621Z,35
2019-02-12T15:15:56.594Z,45
2019-02-12T15:16:28.567Z,65
2019-02-12T15:17:00.546Z,80
2019-02-12T15:17:32.529Z,90
2019-02-12T15:18:04.508Z,95
2019-02-12T15:18:36.532Z,95
2019-02-12T15:19:08.531Z,100
2019-02-12T15:19:40.504Z,100
2019-02-12T15:20:12.504Z,105